createdAt,value
2022-10-25T00:02:00.359Z,100830.44
2022-10-25T00:07:02.111Z,100840.91
2022-10-25T00:12:04.400Z,100833.00
2022-10-25T00:17:06.008Z,100847.09
2022-10-25T00:22:07.616Z,100850.28
2022-10-25T00:27:09.272Z,100850.75
2022-10-25T00:32:10.932Z,100857.19
2022-10-25T00:37:12.662Z,100858.03
2022-10-25T00:42:20.249Z,100871.22
2022-10-25T00:47:21.904Z,100865.81
2022-10-25T00:52:23.986Z,100861.97
2022-10-25T00:57:33.229Z,100882.25
2022-10-25T01:02:35.500Z,100882.03
2022-10-25T01:07:37.430Z,100890.78
2022-10-25T01:12:39.113Z,100895.28
2022-10-25T01:18:09.305Z,100893.16
2022-10-25T01:23:41.815Z,100898.69
2022-10-25T01:29:03.670Z,100896.78
2022-10-25T01:34:25.068Z,100910.41
2022-10-25T01:39:32.995Z,100921.06
2022-10-25T01:44:58.895Z,100908.72
2022-10-25T01:50:15.395Z,100907.88
2022-10-25T01:55:19.814Z,100913.41
2022-10-25T02:00:23.612Z,100938.66
2022-10-25T02:05:25.242Z,100920.16
2022-10-25T02:10:38.836Z,100918.78
2022-10-25T02:15:46.852Z,100922.59
2022-10-25T02:20:51.054Z,100923.03
2022-10-25T02:25:54.776Z,100930.75
2022-10-25T02:30:59.084Z,100926.28
2022-10-25T02:36:12.720Z,100934.56
2022-10-25T02:41:15.026Z,100941.88
2022-10-25T02:46:20.531Z,100940.44
2022-10-25T02:51:23.052Z,100941.16
2022-10-25T02:56:24.854Z,100949.50
2022-10-25T03:01:26.919Z,100952.25
2022-10-25T03:06:28.664Z,100953.34
2022-10-25T03:11:30.328Z,100958.78
2022-10-25T03:16:31.944Z,100963.09
2022-10-25T03:21:37.478Z,100970.50
2022-10-25T03:26:41.618Z,100976.91
2022-10-25T03:31:43.779Z,100972.81
2022-10-25T03:36:47.047Z,100981.97
2022-10-25T03:41:49.074Z,100987.97
2022-10-25T03:46:50.671Z,100991.59
2022-10-25T03:51:55.758Z,100996.44
2022-10-25T03:57:01.459Z,101006.44
2022-10-25T04:02:03.126Z,101005.00
2022-10-25T04:07:04.764Z,101013.50
2022-10-25T04:12:06.465Z,101012.19
2022-10-25T04:17:08.206Z,101021.53
2022-10-25T04:22:12.715Z,101030.66
2022-10-25T04:27:14.518Z,101033.00
2022-10-25T04:32:16.225Z,101034.03
2022-10-25T04:37:17.951Z,101038.91
2022-10-25T04:42:19.714Z,101048.44
2022-10-25T04:47:21.438Z,101045.28
2022-10-25T04:52:23.091Z,101050.81
2022-10-25T04:57:25.889Z,101048.03
2022-10-25T05:02:27.698Z,101057.13
2022-10-25T05:07:29.382Z,101072.66
2022-10-25T05:12:31.096Z,101068.66
2022-10-25T05:17:33.552Z,101073.69
2022-10-25T05:22:35.220Z,101070.56
2022-10-25T05:27:39.120Z,101072.94
2022-10-25T05:32:40.860Z,101080.66
2022-10-25T05:37:43.450Z,101092.38
2022-10-25T05:42:48.580Z,101099.59
2022-10-25T05:47:50.484Z,101102.78
2022-10-25T05:52:53.587Z,101103.56
2022-10-25T05:57:55.587Z,101115.47
2022-10-25T06:03:00.717Z,101121.38
2022-10-25T06:08:02.593Z,101123.09
2022-10-25T06:13:04.643Z,101123.28
2022-10-25T06:18:07.033Z,101129.00
2022-10-25T06:23:10.537Z,101136.91
2022-10-25T06:28:15.422Z,101145.88
2022-10-25T06:33:17.165Z,101137.94
2022-10-25T06:38:18.989Z,101140.94
2022-10-25T06:43:20.685Z,101136.25
2022-10-25T06:48:22.739Z,101148.56
2022-10-25T06:53:24.413Z,101163.06
2022-10-25T06:58:26.181Z,101176.66
2022-10-25T07:03:35.259Z,101177.72
2022-10-25T07:08:38.790Z,101186.78
2022-10-25T07:13:43.536Z,101174.41
2022-10-25T07:19:21.821Z,101199.19
2022-10-25T07:30:26.282Z,101203.53
2022-10-25T07:35:38.459Z,101200.66
2022-10-25T07:40:52.026Z,101214.22
2022-10-25T07:45:57.925Z,101213.94
2022-10-25T07:51:05.242Z,101219.84
2022-10-25T07:56:10.067Z,101220.53
2022-10-25T08:01:14.583Z,101232.91
2022-10-25T08:06:18.390Z,101230.63
2022-10-25T08:11:23.771Z,101242.66
2022-10-25T08:16:25.665Z,101245.31
2022-10-25T08:21:27.527Z,101250.66
2022-10-25T08:26:36.617Z,101249.59
2022-10-25T08:31:39.102Z,101259.72
2022-10-25T08:36:43.769Z,101262.75
2022-10-25T08:42:15.736Z,101265.50
2022-10-25T08:48:01.841Z,101261.78
2022-10-25T08:53:56.561Z,101262.56
2022-10-25T08:59:01.691Z,101270.00
2022-10-25T09:04:24.699Z,101274.81
2022-10-25T09:10:13.457Z,101283.94
2022-10-25T09:15:41.973Z,101288.97
2022-10-25T09:21:15.697Z,101294.47
2022-10-25T09:26:44.784Z,101289.78
2022-10-25T09:31:59.239Z,101297.31
2022-10-25T09:37:12.810Z,101295.75
2022-10-25T09:42:27.464Z,101300.38
2022-10-25T09:47:48.059Z,101306.22
2022-10-25T09:53:09.968Z,101320.44
2022-10-25T09:58:30.554Z,101335.31
2022-10-25T10:04:01.626Z,101331.31
2022-10-25T10:09:11.535Z,101326.34
2022-10-25T10:15:02.523Z,101339.91
2022-10-25T10:20:12.816Z,101342.28
2022-10-25T10:25:30.456Z,101344.03
2022-10-25T10:30:40.801Z,101347.25
2022-10-25T10:35:59.072Z,101348.34
2022-10-25T10:47:45.336Z,101354.94
2022-10-25T10:53:38.430Z,101362.94
2022-10-25T10:59:15.673Z,101358.56
2022-10-25T11:04:21.955Z,101364.84
2022-10-25T11:09:47.852Z,101370.88
2022-10-25T11:14:52.079Z,101373.56
2022-10-25T11:20:33.348Z,101360.78
2022-10-25T11:25:58.050Z,101372.75
2022-10-25T11:31:02.811Z,101381.13
2022-10-25T11:36:43.719Z,101378.03
2022-10-25T11:48:04.656Z,101377.38
2022-10-25T11:53:35.422Z,101370.78
2022-10-25T11:58:36.999Z,101372.75
2022-10-25T12:04:13.117Z,101384.72
2022-10-25T12:10:08.674Z,101390.19
2022-10-25T12:15:37.437Z,101391.75
2022-10-25T12:20:41.030Z,101389.59
2022-10-25T12:25:49.686Z,101383.31
2022-10-25T12:30:58.759Z,101386.09
2022-10-25T12:36:08.160Z,101386.63
2022-10-25T12:41:24.107Z,101375.00
2022-10-25T12:46:43.926Z,101380.09
2022-10-25T12:52:13.157Z,101375.41
2022-10-25T12:57:26.087Z,101397.59
2022-10-25T13:02:40.193Z,101388.41
2022-10-25T13:07:42.733Z,101380.75
2022-10-25T13:13:13.257Z,101389.88
2022-10-25T13:18:44.904Z,101390.88
2022-10-25T13:23:58.967Z,101388.72
2022-10-25T13:29:04.019Z,101396.56
2022-10-25T13:34:15.016Z,101389.56
2022-10-25T13:39:25.184Z,101400.59
2022-10-25T13:44:27.992Z,101395.44
2022-10-25T13:49:44.538Z,101399.03
2022-10-25T13:54:53.898Z,101400.13
2022-10-25T14:00:01.289Z,101387.59
2022-10-25T14:05:03.091Z,101393.00
2022-10-25T14:10:09.266Z,101395.91
2022-10-25T14:15:43.695Z,101385.66
2022-10-25T14:20:49.114Z,101391.81
2022-10-25T14:25:55.486Z,101387.31
2022-10-25T14:30:59.454Z,101392.44
2022-10-25T14:36:22.233Z,101382.38
2022-10-25T14:41:30.045Z,101390.47
2022-10-25T14:46:33.716Z,101378.41
2022-10-25T14:51:39.535Z,101375.81
2022-10-25T14:56:50.830Z,101373.69
2022-10-25T15:02:15.318Z,101367.91
2022-10-25T15:07:24.499Z,101357.72
2022-10-25T15:12:31.152Z,101361.84
2022-10-25T15:17:33.938Z,101367.13
2022-10-25T15:22:38.854Z,101366.38
2022-10-25T15:27:41.735Z,101353.38
2022-10-25T15:32:44.690Z,101355.50
2022-10-25T15:37:47.540Z,101351.59
2022-10-25T15:42:49.699Z,101354.31
2022-10-25T15:47:57.124Z,101354.69
2022-10-25T15:52:59.117Z,101354.22
2022-10-25T15:58:08.300Z,101340.38
2022-10-25T16:03:21.716Z,101336.28
2022-10-25T16:08:23.747Z,101340.69
2022-10-25T16:13:33.430Z,101338.16
2022-10-25T16:18:34.995Z,101349.66
2022-10-25T16:23:37.042Z,101348.63
2022-10-25T16:28:41.336Z,101359.06
2022-10-25T16:33:43.438Z,101355.81
2022-10-25T16:38:50.149Z,101354.91
2022-10-25T16:44:15.631Z,101366.19
2022-10-25T16:49:27.436Z,101356.25
2022-10-25T16:54:32.162Z,101362.88
2022-10-25T16:59:34.128Z,101362.09
2022-10-25T17:04:36.089Z,101360.59
2022-10-25T17:09:38.010Z,101354.13
2022-10-25T17:14:40.890Z,101349.06
2022-10-25T17:19:42.656Z,101344.69
2022-10-25T17:24:44.365Z,101349.81
2022-10-25T17:29:46.221Z,101346.19
2022-10-25T17:34:48.112Z,101349.56
2022-10-25T17:39:49.969Z,101350.41
2022-10-25T17:44:51.993Z,101347.38
2022-10-25T17:49:54.546Z,101342.59
2022-10-25T17:54:56.450Z,101343.84
2022-10-25T17:59:59.964Z,101344.69
2022-10-25T18:05:19.959Z,101344.25
2022-10-25T18:10:23.576Z,101348.81
2022-10-25T18:15:28.088Z,101348.91
2022-10-25T18:20:30.405Z,101350.81
2022-10-25T18:25:32.267Z,101349.34
2022-10-25T18:30:36.649Z,101354.91
2022-10-25T18:40:43.347Z,101351.69
2022-10-25T18:45:45.485Z,101360.34
2022-10-25T18:50:49.822Z,101353.78
2022-10-25T18:55:51.536Z,101350.88
2022-10-25T19:00:53.544Z,101343.56
2022-10-25T19:05:58.233Z,101342.97
2022-10-25T19:11:07.205Z,101334.66
2022-10-25T19:16:12.134Z,101339.44
2022-10-25T19:21:17.569Z,101342.50
2022-10-25T19:26:21.716Z,101334.97
2022-10-25T19:31:23.903Z,101342.78
2022-10-25T19:36:26.534Z,101324.84
2022-10-25T19:41:28.617Z,101331.13
2022-10-25T19:46:30.611Z,101333.13
2022-10-25T19:51:35.483Z,101332.38
2022-10-25T19:56:40.067Z,101322.34
2022-10-25T20:01:43.662Z,101322.72
2022-10-25T20:06:45.622Z,101315.38
2022-10-25T20:11:58.887Z,101309.28
2022-10-25T20:17:10.988Z,101310.19
2022-10-25T20:22:12.857Z,101318.13
2022-10-25T20:27:19.212Z,101317.53
2022-10-25T20:32:25.445Z,101310.59
2022-10-25T20:37:27.234Z,101314.09
2022-10-25T20:42:34.827Z,101308.44
2022-10-25T20:47:36.606Z,101308.84
2022-10-25T20:52:47.650Z,101306.59
2022-10-25T20:57:50.605Z,101312.53
2022-10-25T21:02:52.558Z,101309.59
2022-10-25T21:07:54.293Z,101302.03
2022-10-25T21:12:59.787Z,101299.28
2022-10-25T21:18:04.121Z,101303.16
2022-10-25T21:23:07.518Z,101301.16
2022-10-25T21:28:10.275Z,101299.75
2022-10-25T21:33:12.009Z,101296.19
2022-10-25T21:38:14.500Z,101301.03
2022-10-25T21:43:16.318Z,101296.59
2022-10-25T21:48:18.197Z,101288.75
2022-10-25T21:53:19.922Z,101286.97
2022-10-25T21:58:22.044Z,101281.25
2022-10-25T22:03:26.868Z,101288.19
2022-10-25T22:08:29.473Z,101277.88
2022-10-25T22:13:31.258Z,101283.34
2022-10-25T22:18:33.323Z,101289.78
2022-10-25T22:23:35.542Z,101282.00
2022-10-25T22:28:41.138Z,101280.47
2022-10-25T22:33:45.003Z,101271.84
2022-10-25T22:38:47.123Z,101274.84
2022-10-25T22:43:49.669Z,101271.19
2022-10-25T22:48:53.893Z,101275.84
2022-10-25T22:53:56.065Z,101264.31
2022-10-25T22:59:00.335Z,101263.22
2022-10-25T23:04:06.470Z,101266.22
2022-10-25T23:09:10.484Z,101269.84
2022-10-25T23:14:15.159Z,101258.66
2022-10-25T23:19:19.214Z,101264.38
2022-10-25T23:24:20.883Z,101258.53
2022-10-25T23:29:22.463Z,101266.44
2022-10-25T23:39:30.779Z,101260.47
2022-10-25T23:44:32.450Z,101255.13
2022-10-25T23:49:34.122Z,101252.38
2022-10-25T23:54:35.734Z,101249.44
2022-10-25T23:59:37.882Z,101238.72
